createdAt,value
2022-09-16T00:03:09.000Z,99229.48
2022-09-16T00:08:12.771Z,99230.73
2022-09-16T00:13:16.391Z,99231.71
2022-09-16T00:18:24.395Z,99235.11
2022-09-16T00:23:27.683Z,99243.88
2022-09-16T00:28:30.985Z,99249.23
2022-09-16T00:33:34.377Z,99252.42
2022-09-16T00:38:37.738Z,99252.48
2022-09-16T00:43:59.960Z,99245.61
2022-09-16T00:49:07.505Z,99242.78
2022-09-16T00:54:11.290Z,99237.39
2022-09-16T00:59:18.062Z,99239.77
2022-09-16T01:04:27.907Z,99243.20
2022-09-16T01:09:32.033Z,99244.38
2022-09-16T01:14:53.691Z,99245.94
2022-09-16T01:20:06.425Z,99250.35
2022-09-16T01:25:19.831Z,99251.15
2022-09-16T01:30:40.985Z,99259.81
2022-09-16T01:36:26.139Z,99258.97
2022-09-16T01:41:35.245Z,99260.63
2022-09-16T01:46:46.662Z,99258.44
2022-09-16T01:52:10.915Z,99251.86
2022-09-16T01:57:58.470Z,99253.23
2022-09-16T02:03:08.986Z,99251.41
2022-09-16T02:08:26.880Z,99251.11
2022-09-16T02:13:38.283Z,99253.31
2022-09-16T02:18:42.936Z,99244.98
2022-09-16T02:23:49.065Z,99249.09
2022-09-16T02:28:53.754Z,99253.10
2022-09-16T02:34:01.867Z,99256.58
2022-09-16T02:39:09.663Z,99260.02
2022-09-16T02:44:16.344Z,99262.40
2022-09-16T02:49:41.255Z,99263.44
2022-09-16T02:55:03.774Z,99267.45
2022-09-16T03:00:08.172Z,99265.59
2022-09-16T03:05:11.416Z,99264.25
2022-09-16T03:10:15.410Z,99263.95
2022-09-16T03:15:26.903Z,99262.27
2022-09-16T03:20:33.473Z,99269.23
2022-09-16T03:25:55.750Z,99269.64
2022-09-16T03:31:32.941Z,99277.58
2022-09-16T03:36:41.471Z,99280.82
2022-09-16T03:41:45.427Z,99280.77
2022-09-16T03:46:49.051Z,99277.90
2022-09-16T03:51:52.343Z,99274.52
2022-09-16T03:56:55.703Z,99273.94
2022-09-16T04:01:59.486Z,99275.25
2022-09-16T04:07:02.802Z,99277.70
2022-09-16T04:12:07.895Z,99275.58
2022-09-16T04:17:11.294Z,99275.27
2022-09-16T04:22:14.598Z,99280.38
2022-09-16T04:27:18.019Z,99282.83
2022-09-16T04:32:21.780Z,99298.48
2022-09-16T04:37:25.098Z,99301.19
2022-09-16T04:42:28.313Z,99298.27
2022-09-16T04:47:31.929Z,99292.00
2022-09-16T04:52:35.448Z,99287.57
2022-09-16T04:57:38.904Z,99285.39
2022-09-16T05:02:46.032Z,99287.70
2022-09-16T05:07:54.819Z,99284.84
2022-09-16T05:12:58.132Z,99289.44
2022-09-16T05:18:01.449Z,99295.55
2022-09-16T05:23:04.888Z,99288.02
2022-09-16T05:28:08.119Z,99287.30
2022-09-16T05:33:11.378Z,99291.45
2022-09-16T05:38:20.885Z,99291.91
2022-09-16T05:43:28.467Z,99294.12
2022-09-16T05:48:35.453Z,99299.54
2022-09-16T05:53:40.561Z,99293.86
2022-09-16T05:58:49.374Z,99289.52
2022-09-16T06:03:56.686Z,99280.17
2022-09-16T06:09:12.930Z,99287.23
2022-09-16T06:14:22.959Z,99291.74
2022-09-16T06:19:26.995Z,99292.88
2022-09-16T06:24:31.106Z,99290.95
2022-09-16T06:29:34.825Z,99294.27
2022-09-16T06:34:38.072Z,99288.38
2022-09-16T06:39:41.355Z,99285.45
2022-09-16T06:44:44.758Z,99279.85
2022-09-16T06:49:48.013Z,99274.70
2022-09-16T06:54:52.245Z,99282.48
2022-09-16T06:59:55.617Z,99286.10
2022-09-16T07:04:58.934Z,99292.90
2022-09-16T07:10:02.562Z,99283.30
2022-09-16T07:15:06.226Z,99294.52
2022-09-16T07:20:10.561Z,99304.16
2022-09-16T07:25:13.962Z,99306.23
2022-09-16T07:30:17.479Z,99300.77
2022-09-16T07:35:21.014Z,99302.02
2022-09-16T07:40:27.842Z,99295.54
2022-09-16T07:45:33.073Z,99299.48
2022-09-16T07:50:36.953Z,99299.18
2022-09-16T07:55:40.827Z,99307.64
2022-09-16T08:00:44.341Z,99312.90
2022-09-16T08:05:48.298Z,99315.75
2022-09-16T08:10:56.205Z,99316.27
2022-09-16T08:16:08.986Z,99316.73
2022-09-16T08:21:18.603Z,99315.77
2022-09-16T08:26:22.749Z,99315.36
2022-09-16T08:31:26.254Z,99310.45
2022-09-16T08:36:30.183Z,99301.33
2022-09-16T08:41:44.743Z,99307.30
2022-09-16T08:46:56.007Z,99317.84
2022-09-16T08:52:04.625Z,99309.29
2022-09-16T08:57:15.338Z,99309.38
2022-09-16T09:02:22.060Z,99311.03
2022-09-16T09:07:38.456Z,99310.89
2022-09-16T09:13:28.811Z,99315.34
2022-09-16T09:18:32.336Z,99315.95
2022-09-16T09:24:11.185Z,99309.49
2022-09-16T09:29:22.561Z,99308.75
2022-09-16T09:35:06.978Z,99303.52
2022-09-16T09:40:14.079Z,99295.62
2022-09-16T09:45:20.698Z,99299.88
2022-09-16T09:50:26.328Z,99292.92
2022-09-16T09:55:33.449Z,99288.42
2022-09-16T10:00:36.817Z,99284.50
2022-09-16T10:05:40.815Z,99288.06
2022-09-16T10:10:51.100Z,99292.02
2022-09-16T10:16:07.218Z,99286.96
2022-09-16T10:21:13.736Z,99280.72
2022-09-16T10:26:21.294Z,99280.30
2022-09-16T10:31:32.028Z,99281.88
2022-09-16T10:36:38.021Z,99275.68
2022-09-16T10:41:47.220Z,99276.54
2022-09-16T10:47:37.657Z,99273.66
2022-09-16T10:52:53.069Z,99275.14
2022-09-16T10:58:19.420Z,99280.77
2022-09-16T11:03:55.930Z,99269.11
2022-09-16T11:09:32.774Z,99260.12
2022-09-16T11:14:55.954Z,99267.20
2022-09-16T11:20:29.944Z,99271.36
2022-09-16T11:25:57.953Z,99269.06
2022-09-16T11:31:43.520Z,99258.84
2022-09-16T11:37:07.497Z,99248.23
2022-09-16T11:42:34.044Z,99240.96
2022-09-16T11:48:21.202Z,99236.55
2022-09-16T11:53:53.580Z,99253.86
2022-09-16T11:59:23.097Z,99249.73
2022-09-16T12:04:38.719Z,99248.40
2022-09-16T12:10:21.941Z,99248.41
2022-09-16T12:15:36.982Z,99242.63
2022-09-16T12:21:15.029Z,99239.26
2022-09-16T12:26:41.942Z,99233.21
2022-09-16T12:32:09.069Z,99228.98
2022-09-16T12:43:04.521Z,99221.73
2022-09-16T12:48:18.091Z,99212.86
2022-09-16T12:53:56.690Z,99205.54
2022-09-16T12:59:45.389Z,99199.85
2022-09-16T13:04:59.334Z,99192.52
2022-09-16T13:10:10.927Z,99196.77
2022-09-16T13:15:25.104Z,99190.23
2022-09-16T13:20:34.176Z,99181.30
2022-09-16T13:25:51.959Z,99176.34
2022-09-16T13:31:01.176Z,99176.12
2022-09-16T13:36:33.688Z,99178.44
2022-09-16T13:41:41.001Z,99203.77
2022-09-16T13:46:48.308Z,99223.91
2022-09-16T13:51:55.431Z,99223.20
2022-09-16T13:57:19.216Z,99220.08
2022-09-16T14:03:07.137Z,99203.05
2022-09-16T14:08:42.037Z,99201.27
2022-09-16T14:13:51.694Z,99196.69
2022-09-16T14:19:38.309Z,99190.55
2022-09-16T14:24:42.844Z,99191.73
2022-09-16T14:30:23.189Z,99191.23
2022-09-16T14:35:49.469Z,99190.06
2022-09-16T14:41:17.889Z,99195.19
2022-09-16T14:46:38.895Z,99183.41
2022-09-16T14:57:36.262Z,99175.20
2022-09-16T15:02:55.249Z,99174.63
2022-09-16T15:08:33.956Z,99177.98
2022-09-16T15:14:10.610Z,99181.20
2022-09-16T15:19:33.245Z,99192.73
2022-09-16T15:24:41.593Z,99177.80
2022-09-16T15:36:00.989Z,99174.95
2022-09-16T15:41:27.179Z,99180.29
2022-09-16T15:46:49.904Z,99170.81
2022-09-16T15:52:11.830Z,99169.83
2022-09-16T15:57:41.801Z,99164.24
2022-09-16T16:03:17.926Z,99163.58
2022-09-16T16:08:42.471Z,99166.20
2022-09-16T16:13:58.619Z,99169.13
2022-09-16T16:19:09.401Z,99164.47
2022-09-16T16:24:24.906Z,99163.48
2022-09-16T16:29:35.529Z,99160.08
2022-09-16T16:34:58.475Z,99161.30
2022-09-16T16:40:37.727Z,99172.45
2022-09-16T16:46:07.297Z,99170.06
2022-09-16T16:51:48.898Z,99167.98
2022-09-16T16:57:10.474Z,99167.13
2022-09-16T17:02:36.623Z,99170.30
2022-09-16T17:07:40.715Z,99171.61
2022-09-16T17:12:51.309Z,99177.27
2022-09-16T17:23:26.518Z,99191.11
2022-09-16T17:28:44.647Z,99193.94
2022-09-16T17:33:54.188Z,99193.81
2022-09-16T17:39:09.266Z,99190.65
2022-09-16T17:44:17.842Z,99189.97
2022-09-16T17:49:27.467Z,99193.46
2022-09-16T17:54:32.185Z,99190.96
2022-09-16T17:59:36.051Z,99190.95
2022-09-16T18:04:43.791Z,99198.50
2022-09-16T18:09:49.843Z,99201.06
2022-09-16T18:14:59.908Z,99201.76
2022-09-16T18:20:13.038Z,99204.17
2022-09-16T18:25:16.590Z,99203.71
2022-09-16T18:30:20.369Z,99202.41
2022-09-16T18:35:32.032Z,99203.95
2022-09-16T18:40:41.207Z,99208.33
2022-09-16T18:45:50.132Z,99209.30
2022-09-16T18:51:08.126Z,99210.57
2022-09-16T18:56:23.548Z,99219.02
2022-09-16T19:01:40.593Z,99215.00
2022-09-16T19:06:52.586Z,99214.80
2022-09-16T19:12:38.480Z,99215.84
2022-09-16T19:17:51.566Z,99215.42
2022-09-16T19:23:10.721Z,99211.09
2022-09-16T19:28:28.332Z,99210.29
2022-09-16T19:33:37.903Z,99208.20
2022-09-16T19:39:13.255Z,99207.99
2022-09-16T19:50:49.840Z,99209.35
2022-09-16T19:56:25.778Z,99207.80
2022-09-16T20:01:45.168Z,99209.82
2022-09-16T20:06:55.170Z,99207.74
2022-09-16T20:12:05.005Z,99203.48
2022-09-16T20:17:27.147Z,99208.25
2022-09-16T20:22:35.335Z,99213.11
2022-09-16T20:27:38.690Z,99207.95
2022-09-16T20:32:41.925Z,99221.74
2022-09-16T20:37:48.384Z,99220.42
2022-09-16T20:42:51.793Z,99221.80
2022-09-16T20:47:55.055Z,99226.29
2022-09-16T20:53:02.235Z,99229.95
2022-09-16T20:58:07.672Z,99229.34
2022-09-16T21:03:14.243Z,99226.92
2022-09-16T21:08:17.514Z,99218.50
2022-09-16T21:13:25.251Z,99221.67
2022-09-16T21:18:30.846Z,99224.97
2022-09-16T21:23:35.077Z,99224.28
2022-09-16T21:28:38.972Z,99225.73
2022-09-16T21:33:44.231Z,99223.50
2022-09-16T21:38:59.639Z,99226.69
2022-09-16T21:44:08.364Z,99230.50
2022-09-16T21:49:20.158Z,99227.88
2022-09-16T21:54:24.617Z,99225.45
2022-09-16T21:59:28.816Z,99224.88
2022-09-16T22:04:32.038Z,99217.31
2022-09-16T22:09:35.347Z,99216.38
2022-09-16T22:14:47.676Z,99212.64
2022-09-16T22:19:51.290Z,99211.70
2022-09-16T22:24:56.266Z,99210.52
2022-09-16T22:30:01.079Z,99208.98
2022-09-16T22:35:05.946Z,99208.45
2022-09-16T22:40:10.966Z,99206.10
2022-09-16T22:45:45.593Z,99204.54
2022-09-16T22:51:27.281Z,99199.27
2022-09-16T22:56:33.923Z,99202.27
2022-09-16T23:01:40.489Z,99204.46
2022-09-16T23:06:45.476Z,99204.30
2022-09-16T23:11:52.373Z,99193.48
2022-09-16T23:16:58.314Z,99190.17
2022-09-16T23:22:02.525Z,99186.33
2022-09-16T23:27:22.524Z,99188.69
2022-09-16T23:32:27.567Z,99186.98
2022-09-16T23:37:36.872Z,99185.05
2022-09-16T23:42:41.168Z,99187.41
2022-09-16T23:47:44.452Z,99189.27
2022-09-16T23:52:48.473Z,99190.38
2022-09-16T23:57:51.683Z,99193.18
